createdAt,value
2018-07-28T00:02:24.564Z,22.60
2018-07-28T00:04:54.766Z,22.60
2018-07-28T00:07:24.949Z,22.60
2018-07-28T00:09:55.123Z,22.60
2018-07-28T00:14:55.030Z,22.60
2018-07-28T00:17:25.088Z,22.60
2018-07-28T00:19:55.198Z,22.60
2018-07-28T00:22:25.386Z,22.60
2018-07-28T00:24:55.539Z,22.60
2018-07-28T00:27:25.744Z,22.60
2018-07-28T00:29:55.831Z,22.60
2018-07-28T00:32:26.013Z,22.50
2018-07-28T00:34:56.135Z,22.60
2018-07-28T00:37:26.316Z,22.50
2018-07-28T00:39:56.549Z,22.60
2018-07-28T00:42:26.767Z,22.60
2018-07-28T00:44:56.911Z,22.70
2018-07-28T00:47:27.994Z,22.70
2018-07-28T00:49:58.057Z,22.80
2018-07-28T00:52:28.124Z,22.80
2018-07-28T00:54:58.222Z,22.90
2018-07-28T00:57:28.394Z,23.00
2018-07-28T01:02:28.210Z,23.00
2018-07-28T01:04:58.295Z,23.10
2018-07-28T01:07:28.591Z,23.00
2018-07-28T01:12:28.449Z,23.10
2018-07-28T01:14:58.671Z,23.10
2018-07-28T01:17:28.854Z,23.10
2018-07-28T01:19:59.032Z,23.10
2018-07-28T01:22:29.272Z,23.10
2018-07-28T01:24:59.434Z,23.10
2018-07-28T01:27:29.619Z,23.10
2018-07-28T01:29:59.695Z,23.00
2018-07-28T01:34:59.624Z,23.00
2018-07-28T01:37:29.770Z,22.90
2018-07-28T01:39:59.903Z,22.90
2018-07-28T01:42:30.188Z,22.80
2018-07-28T01:45:00.424Z,22.70
2018-07-28T01:47:30.605Z,22.80
2018-07-28T01:50:00.644Z,22.70
2018-07-28T01:52:30.922Z,22.70
2018-07-28T01:55:01.016Z,22.70
2018-07-28T01:57:31.123Z,22.70
2018-07-28T02:00:01.305Z,22.70
2018-07-28T02:02:31.557Z,22.70
2018-07-28T02:05:01.667Z,22.60
2018-07-28T02:07:31.882Z,22.70
2018-07-28T02:10:02.016Z,22.60
2018-07-28T02:12:32.147Z,22.60
2018-07-28T02:15:02.283Z,22.50
2018-07-28T02:17:32.553Z,22.50
2018-07-28T02:22:32.530Z,22.50
2018-07-28T02:25:02.588Z,22.50
2018-07-28T02:27:32.773Z,22.40
2018-07-28T02:30:02.903Z,22.40
2018-07-28T02:32:33.210Z,22.30
2018-07-28T02:35:03.542Z,22.30
2018-07-28T02:37:33.706Z,22.30
2018-07-28T02:40:03.871Z,22.30
2018-07-28T02:45:03.819Z,22.30
2018-07-28T02:47:34.210Z,22.20
2018-07-28T02:50:04.329Z,22.30
2018-07-28T02:52:34.492Z,22.30
2018-07-28T02:55:05.109Z,22.30
2018-07-28T03:00:05.580Z,22.40
2018-07-28T03:02:35.804Z,22.40
2018-07-28T03:07:36.728Z,22.40
2018-07-28T03:10:07.462Z,22.40
2018-07-28T03:12:37.828Z,22.50
2018-07-28T03:15:35.045Z,22.50
2018-07-28T03:18:09.406Z,22.50
2018-07-28T03:20:39.547Z,22.60
2018-07-28T03:23:09.684Z,22.50
2018-07-28T03:25:39.806Z,22.50
2018-07-28T03:28:09.935Z,22.60
2018-07-28T03:30:40.043Z,22.60
2018-07-28T03:33:10.134Z,22.60
2018-07-28T03:35:40.163Z,22.50
2018-07-28T03:38:13.822Z,22.50
2018-07-28T03:40:44.233Z,22.50
2018-07-28T03:43:14.663Z,22.40
2018-07-28T03:45:44.844Z,22.20
2018-07-28T03:48:14.949Z,22.20
2018-07-28T03:50:45.187Z,22.10
2018-07-28T03:53:15.298Z,22.00
2018-07-28T03:55:45.427Z,21.90
2018-07-28T03:58:15.546Z,21.80
2018-07-28T04:00:45.776Z,21.60
2018-07-28T04:05:45.605Z,21.50
2018-07-28T04:08:16.772Z,21.50
2018-07-28T04:10:46.931Z,21.50
2018-07-28T04:13:17.307Z,21.50
2018-07-28T04:18:17.386Z,21.40
2018-07-28T04:20:47.643Z,21.30
2018-07-28T04:23:17.810Z,21.20
2018-07-28T04:25:48.019Z,21.10
2018-07-28T04:28:18.261Z,21.00
2018-07-28T04:30:48.545Z,20.90
2018-07-28T04:33:18.869Z,20.90
2018-07-28T04:35:48.981Z,20.90
2018-07-28T04:38:19.102Z,20.80
2018-07-28T04:40:49.203Z,20.70
2018-07-28T04:43:19.386Z,20.70
2018-07-28T04:45:49.622Z,20.70
2018-07-28T04:48:20.846Z,20.70
2018-07-28T04:50:51.684Z,20.70
2018-07-28T04:53:21.825Z,20.80
2018-07-28T04:55:51.915Z,20.80
2018-07-28T04:58:22.072Z,20.80
2018-07-28T05:00:52.155Z,20.80
2018-07-28T05:03:22.438Z,20.80
2018-07-28T05:08:22.261Z,20.90
2018-07-28T05:10:52.348Z,21.00
2018-07-28T05:13:22.491Z,21.00
2018-07-28T05:15:52.600Z,21.00
2018-07-28T05:18:22.689Z,21.00
2018-07-28T05:20:52.812Z,21.10
2018-07-28T05:23:22.890Z,21.10
2018-07-28T05:25:52.972Z,21.10
2018-07-28T05:28:23.110Z,21.10
2018-07-28T05:30:53.247Z,21.10
2018-07-28T05:33:24.158Z,21.10
2018-07-28T05:35:54.405Z,21.20
2018-07-28T05:38:24.528Z,21.30
2018-07-28T05:40:54.607Z,21.40
2018-07-28T05:45:54.363Z,21.50
2018-07-28T05:48:24.426Z,21.60
2018-07-28T05:50:54.449Z,21.80
2018-07-28T05:53:24.498Z,22.00
2018-07-28T05:58:24.200Z,22.40
2018-07-28T06:00:54.279Z,22.60
2018-07-28T06:03:24.431Z,22.70
2018-07-28T06:05:54.867Z,22.80
2018-07-28T06:08:24.990Z,22.90
2018-07-28T06:10:55.045Z,22.90
2018-07-28T06:13:25.188Z,23.00
2018-07-28T06:15:55.437Z,23.00
2018-07-28T06:18:25.483Z,23.00
2018-07-28T06:20:55.688Z,23.10
2018-07-28T06:23:26.206Z,23.10
2018-07-28T06:25:56.350Z,23.10
2018-07-28T06:28:26.397Z,23.20
2018-07-28T06:30:56.440Z,23.30
2018-07-28T06:33:26.547Z,23.30
2018-07-28T06:35:56.593Z,23.30
2018-07-28T06:38:26.720Z,23.40
2018-07-28T06:40:56.783Z,23.40
2018-07-28T06:43:26.894Z,23.40
2018-07-28T06:45:56.935Z,23.20
2018-07-28T06:48:26.968Z,22.90
2018-07-28T06:50:57.159Z,22.70
2018-07-28T06:53:27.233Z,22.50
2018-07-28T06:55:57.364Z,22.30
2018-07-28T06:58:27.467Z,22.20
2018-07-28T07:00:57.554Z,22.00
2018-07-28T07:03:27.599Z,21.90
2018-07-28T07:05:57.700Z,21.80
2018-07-28T07:08:27.805Z,21.80
2018-07-28T07:13:27.557Z,21.80
2018-07-28T07:15:57.642Z,21.70
2018-07-28T07:18:27.663Z,21.70
2018-07-28T07:20:57.774Z,21.70
2018-07-28T07:23:27.837Z,21.70
2018-07-28T07:25:57.945Z,21.70
2018-07-28T07:30:57.631Z,21.60
2018-07-28T07:33:27.714Z,21.70
2018-07-28T07:35:57.792Z,21.70
2018-07-28T07:38:27.794Z,21.60
2018-07-28T07:40:57.860Z,21.60
2018-07-28T07:43:27.955Z,21.50
2018-07-28T07:45:58.097Z,21.40
2018-07-28T07:48:28.300Z,21.40
2018-07-28T07:50:58.490Z,21.40
2018-07-28T07:53:28.588Z,21.50
2018-07-28T07:55:58.693Z,21.50
2018-07-28T07:58:28.736Z,21.40
2018-07-28T08:00:58.858Z,21.40
2018-07-28T08:05:58.566Z,21.50
2018-07-28T08:08:28.617Z,21.50
2018-07-28T08:10:58.768Z,21.60
2018-07-28T08:13:28.832Z,21.70
2018-07-28T08:15:58.953Z,21.80
2018-07-28T08:18:29.029Z,22.00
2018-07-28T08:20:59.185Z,22.00
2018-07-28T08:23:29.288Z,22.20
2018-07-28T08:25:59.408Z,22.20
2018-07-28T08:28:29.530Z,22.40
2018-07-28T08:30:59.650Z,22.30
2018-07-28T08:33:29.787Z,22.50
2018-07-28T08:38:29.543Z,22.70
2018-07-28T08:40:59.710Z,22.70
2018-07-28T08:43:29.825Z,22.70
2018-07-28T08:45:59.933Z,22.80
2018-07-28T08:48:30.025Z,22.90
2018-07-28T08:51:00.230Z,23.10
2018-07-28T08:53:30.307Z,23.50
2018-07-28T08:56:00.360Z,23.90
2018-07-28T08:58:30.429Z,24.20
2018-07-28T09:01:00.531Z,24.50
2018-07-28T09:03:30.609Z,24.70
2018-07-28T09:08:30.514Z,25.00
2018-07-28T09:11:00.627Z,25.00
2018-07-28T09:13:30.717Z,25.00
2018-07-28T09:16:00.865Z,24.90
2018-07-28T09:18:30.950Z,24.80
2018-07-28T09:21:01.035Z,24.60
2018-07-28T09:23:31.211Z,24.50
2018-07-28T09:26:01.333Z,24.40
2018-07-28T09:28:31.460Z,24.20
2018-07-28T09:31:02.534Z,24.20
2018-07-28T09:33:32.759Z,24.10
2018-07-28T09:36:04.455Z,23.90
2018-07-28T09:38:34.519Z,23.90
2018-07-28T09:41:04.801Z,23.90
2018-07-28T09:43:35.288Z,23.90
2018-07-28T09:46:05.482Z,23.90
2018-07-28T09:48:36.887Z,24.10
2018-07-28T09:51:08.692Z,24.20
2018-07-28T09:53:38.814Z,24.40
2018-07-28T09:56:09.047Z,24.60
2018-07-28T09:58:39.251Z,24.60
2018-07-28T10:01:14.364Z,24.60
2018-07-28T10:03:44.447Z,24.60
2018-07-28T10:06:14.644Z,24.60
2018-07-28T10:11:16.054Z,24.80
2018-07-28T10:13:46.105Z,24.90
2018-07-28T10:16:16.386Z,25.00
2018-07-28T10:18:46.439Z,25.20
2018-07-28T10:21:16.596Z,25.40
2018-07-28T10:26:27.716Z,25.50
2018-07-28T10:28:57.870Z,25.60
2018-07-28T10:31:28.145Z,25.70
2018-07-28T10:33:58.365Z,25.90
2018-07-28T10:36:28.572Z,26.10
2018-07-28T10:38:58.632Z,26.40
2018-07-28T10:43:58.717Z,26.80
2018-07-28T10:46:28.806Z,27.00
2018-07-28T10:51:28.606Z,27.60
2018-07-28T10:53:58.886Z,27.80
2018-07-28T10:56:28.956Z,27.90
2018-07-28T10:59:00.002Z,28.10
2018-07-28T11:01:30.183Z,28.00
2018-07-28T11:04:00.285Z,28.00
2018-07-28T11:06:30.301Z,27.90
2018-07-28T11:09:00.435Z,27.70
2018-07-28T11:11:30.575Z,27.60
2018-07-28T11:14:00.625Z,27.40
2018-07-28T11:16:30.641Z,27.50
2018-07-28T11:19:00.730Z,27.40
2018-07-28T11:21:30.792Z,27.30
2018-07-28T11:24:02.101Z,27.40
2018-07-28T11:26:32.136Z,27.40
2018-07-28T11:29:02.210Z,27.40
2018-07-28T11:31:48.868Z,27.30
2018-07-28T11:34:35.523Z,27.30
2018-07-28T11:37:28.709Z,26.90
2018-07-28T11:40:15.571Z,27.00
2018-07-28T11:43:02.462Z,26.90
2018-07-28T11:45:32.524Z,26.80
2018-07-28T11:48:02.590Z,26.80
2018-07-28T11:50:32.617Z,26.90
2018-07-28T11:53:02.658Z,26.80
2018-07-28T11:55:32.691Z,26.70
2018-07-28T11:58:02.706Z,26.80
2018-07-28T12:00:32.774Z,26.70
2018-07-28T12:03:02.748Z,26.60
2018-07-28T12:08:02.578Z,26.50
2018-07-28T12:10:32.595Z,26.40
2018-07-28T12:13:02.650Z,26.30
2018-07-28T12:15:32.701Z,26.30
2018-07-28T12:18:03.766Z,26.30
2018-07-28T12:20:33.823Z,26.20
2018-07-28T12:23:04.100Z,26.30
2018-07-28T12:25:34.189Z,26.30
2018-07-28T12:28:04.335Z,26.40
2018-07-28T12:30:34.442Z,26.40
2018-07-28T12:33:04.500Z,26.40
2018-07-28T12:35:34.757Z,26.30
2018-07-28T12:38:04.836Z,26.40
2018-07-28T12:40:34.991Z,26.40
2018-07-28T12:43:05.119Z,26.30
2018-07-28T12:48:04.947Z,26.10
2018-07-28T12:50:35.143Z,25.90
2018-07-28T12:53:05.310Z,25.70
2018-07-28T12:55:35.814Z,25.60
2018-07-28T12:58:05.915Z,25.70
2018-07-28T13:00:36.407Z,25.70
2018-07-28T13:03:06.603Z,25.90
2018-07-28T13:05:36.683Z,26.10
2018-07-28T13:08:06.961Z,26.30
2018-07-28T13:10:37.116Z,26.40
2018-07-28T13:13:07.287Z,26.60
2018-07-28T13:15:38.466Z,26.70
2018-07-28T13:18:08.573Z,26.70
2018-07-28T13:20:38.686Z,26.70
2018-07-28T13:23:08.887Z,26.50
2018-07-28T13:25:38.922Z,26.40
2018-07-28T13:28:09.028Z,26.40
2018-07-28T13:30:40.330Z,26.30
2018-07-28T13:33:11.338Z,26.20
2018-07-28T13:35:41.434Z,26.20
2018-07-28T13:38:11.572Z,26.00
2018-07-28T13:40:42.632Z,26.00
2018-07-28T13:43:12.746Z,26.00
2018-07-28T13:45:42.839Z,25.90
2018-07-28T13:48:13.068Z,25.90
2018-07-28T13:50:43.260Z,25.90
2018-07-28T13:53:13.673Z,25.90
2018-07-28T13:55:43.766Z,25.90
2018-07-28T13:58:13.967Z,25.80
2018-07-28T14:00:44.087Z,25.80
2018-07-28T14:03:14.301Z,25.70
2018-07-28T14:05:44.492Z,25.70
2018-07-28T14:08:14.749Z,25.60
2018-07-28T14:10:44.836Z,25.40
2018-07-28T14:13:15.122Z,25.40
2018-07-28T14:15:45.249Z,25.20
2018-07-28T14:18:15.964Z,25.10
2018-07-28T14:20:46.037Z,25.10
2018-07-28T14:23:16.193Z,25.00
2018-07-28T14:25:46.229Z,25.00
2018-07-28T14:28:16.319Z,24.80
2018-07-28T14:30:46.348Z,24.80
2018-07-28T14:33:16.506Z,24.70
2018-07-28T14:35:46.973Z,24.70
2018-07-28T14:38:17.071Z,24.60
2018-07-28T14:40:47.148Z,24.60
2018-07-28T14:43:17.318Z,24.60
2018-07-28T14:45:47.349Z,24.50
2018-07-28T14:48:17.432Z,24.60
2018-07-28T14:50:47.550Z,24.50
2018-07-28T14:53:17.857Z,24.40
2018-07-28T14:55:47.952Z,24.40
2018-07-28T14:58:18.093Z,24.30
2018-07-28T15:00:48.218Z,24.30
2018-07-28T15:03:18.297Z,24.30
2018-07-28T15:05:49.285Z,24.40
2018-07-28T15:08:19.551Z,24.40
2018-07-28T15:13:19.325Z,24.30
2018-07-28T15:15:49.437Z,24.40
2018-07-28T15:18:19.569Z,24.40
2018-07-28T15:20:49.669Z,24.40
2018-07-28T15:25:49.554Z,24.30
2018-07-28T15:28:19.763Z,24.20
2018-07-28T15:30:49.859Z,24.10
2018-07-28T15:35:49.703Z,24.00
2018-07-28T15:38:19.890Z,23.90
2018-07-28T15:40:50.146Z,23.80
2018-07-28T15:43:20.162Z,23.90
2018-07-28T15:45:50.906Z,23.80
2018-07-28T15:48:21.019Z,23.80
2018-07-28T15:50:51.154Z,23.80
2018-07-28T15:53:21.352Z,23.80
2018-07-28T15:55:51.530Z,23.70
2018-07-28T15:58:21.646Z,23.70
2018-07-28T16:00:51.689Z,23.70
2018-07-28T16:03:21.656Z,23.70
2018-07-28T16:05:50.685Z,23.60
2018-07-28T16:08:20.870Z,23.60
2018-07-28T16:10:51.069Z,23.60
2018-07-28T16:13:21.183Z,23.60
2018-07-28T16:15:51.347Z,23.50
2018-07-28T16:20:51.160Z,23.50
2018-07-28T16:23:21.191Z,23.50
2018-07-28T16:25:51.263Z,23.50
2018-07-28T16:28:21.321Z,23.40
2018-07-28T16:30:51.447Z,23.40
2018-07-28T16:33:21.595Z,23.40
2018-07-28T16:38:22.296Z,23.40
2018-07-28T16:40:52.415Z,23.40
2018-07-28T16:43:22.497Z,23.40
2018-07-28T16:45:53.552Z,23.40
2018-07-28T16:48:25.921Z,23.30
2018-07-28T16:50:56.038Z,23.30
2018-07-28T16:53:26.133Z,23.40
2018-07-28T16:55:56.234Z,23.30
2018-07-28T16:58:26.298Z,23.30
2018-07-28T17:00:56.452Z,23.20
2018-07-28T17:03:28.024Z,23.20
2018-07-28T17:05:58.708Z,23.20
2018-07-28T17:08:28.797Z,23.10
2018-07-28T17:10:59.128Z,23.10
2018-07-28T17:13:29.165Z,23.10
2018-07-28T17:15:59.279Z,23.00
2018-07-28T17:18:29.346Z,23.00
2018-07-28T17:23:29.862Z,22.90
2018-07-28T17:25:59.952Z,23.00
2018-07-28T17:28:30.010Z,23.10
2018-07-28T17:31:00.485Z,23.10
2018-07-28T17:33:30.518Z,23.20
2018-07-28T17:36:00.830Z,23.30
2018-07-28T17:38:30.890Z,23.30
2018-07-28T17:41:01.236Z,23.30
2018-07-28T17:43:31.421Z,23.30
2018-07-28T17:46:01.490Z,23.30
2018-07-28T17:48:31.586Z,23.30
2018-07-28T17:51:01.925Z,23.30
2018-07-28T17:53:32.645Z,23.30
2018-07-28T17:56:02.798Z,23.30
2018-07-28T17:58:32.828Z,23.30
2018-07-28T18:01:03.887Z,23.30
2018-07-28T18:03:33.992Z,23.20
2018-07-28T18:06:04.648Z,23.10
2018-07-28T18:08:34.652Z,23.10
2018-07-28T18:11:05.025Z,23.10
2018-07-28T18:13:35.204Z,23.00
2018-07-28T18:16:05.386Z,22.90
2018-07-28T18:18:35.435Z,22.90
2018-07-28T18:21:05.651Z,22.80
2018-07-28T18:23:35.671Z,22.80
2018-07-28T18:26:05.760Z,22.70
2018-07-28T18:31:05.465Z,22.60
2018-07-28T18:33:35.647Z,22.60
2018-07-28T18:36:05.938Z,22.60
2018-07-28T18:41:05.628Z,22.50
2018-07-28T18:43:35.715Z,22.50
2018-07-28T18:46:05.971Z,22.40
2018-07-28T18:48:36.078Z,22.40
2018-07-28T18:51:06.196Z,22.30
2018-07-28T18:53:36.220Z,22.30
2018-07-28T18:56:06.587Z,22.20
2018-07-28T18:58:36.623Z,22.20
2018-07-28T19:01:06.710Z,22.20
2018-07-28T19:03:37.291Z,22.10
2018-07-28T19:06:07.545Z,22.10
2018-07-28T19:08:37.744Z,22.00
2018-07-28T19:13:43.072Z,21.80
2018-07-28T19:16:13.207Z,21.80
2018-07-28T19:18:48.545Z,21.70
2018-07-28T19:21:18.616Z,21.70
2018-07-28T19:23:53.668Z,21.60
2018-07-28T19:26:23.821Z,21.60
2018-07-28T19:28:59.076Z,21.50
2018-07-28T19:31:29.186Z,21.50
2018-07-28T19:33:59.254Z,21.30
2018-07-28T19:36:34.572Z,21.20
2018-07-28T19:39:06.750Z,21.10
2018-07-28T19:41:41.929Z,21.10
2018-07-28T19:44:12.888Z,21.10
2018-07-28T19:46:43.010Z,21.00
2018-07-28T19:49:13.028Z,21.00
2018-07-28T19:51:43.340Z,20.90
2018-07-28T19:54:13.518Z,20.90
2018-07-28T19:56:43.599Z,20.90
2018-07-28T19:59:13.684Z,20.90
2018-07-28T20:01:43.761Z,20.80
2018-07-28T20:04:13.853Z,20.80
2018-07-28T20:06:44.053Z,20.70
2018-07-28T20:09:14.191Z,20.70
2018-07-28T20:11:44.315Z,20.70
2018-07-28T20:14:14.408Z,20.60
2018-07-28T20:16:44.574Z,20.60
2018-07-28T20:19:14.668Z,20.60
2018-07-28T20:21:45.014Z,20.50
2018-07-28T20:24:15.161Z,20.60
2018-07-28T20:26:45.280Z,20.50
2018-07-28T20:29:15.374Z,20.50
2018-07-28T20:31:45.552Z,20.40
2018-07-28T20:34:15.625Z,20.40
2018-07-28T20:36:46.339Z,20.40
2018-07-28T20:39:16.585Z,20.40
2018-07-28T20:41:46.783Z,20.30
2018-07-28T20:44:16.823Z,20.20
2018-07-28T20:46:46.848Z,20.20
2018-07-28T20:49:16.959Z,20.10
2018-07-28T20:51:47.128Z,20.10
2018-07-28T20:54:17.177Z,20.10
2018-07-28T20:56:47.308Z,20.10
2018-07-28T20:59:17.367Z,20.10
2018-07-28T21:01:47.504Z,20.10
2018-07-28T21:04:17.720Z,20.10
2018-07-28T21:06:47.741Z,20.00
2018-07-28T21:09:17.924Z,19.90
2018-07-28T21:11:48.063Z,19.80
2018-07-28T21:14:18.227Z,19.80
2018-07-28T21:16:48.238Z,19.70
2018-07-28T21:19:18.259Z,19.60
2018-07-28T21:21:48.502Z,19.60
2018-07-28T21:24:18.570Z,19.60
2018-07-28T21:26:48.636Z,19.50
2018-07-28T21:29:18.770Z,19.40
2018-07-28T21:31:48.947Z,19.30
2018-07-28T21:34:19.069Z,19.30
2018-07-28T21:36:49.104Z,19.20
2018-07-28T21:39:19.238Z,19.10
2018-07-28T21:41:49.382Z,19.10
2018-07-28T21:44:19.502Z,19.00
2018-07-28T21:46:49.603Z,18.90
2018-07-28T21:49:19.655Z,18.90
2018-07-28T21:51:49.741Z,18.80
2018-07-28T21:56:50.492Z,18.70
2018-07-28T21:59:20.634Z,18.70
2018-07-28T22:01:50.792Z,18.60
2018-07-28T22:04:25.878Z,18.60
2018-07-28T22:06:55.987Z,18.60
2018-07-28T22:09:26.061Z,18.50
2018-07-28T22:11:56.808Z,18.50
2018-07-28T22:14:27.014Z,18.50
2018-07-28T22:16:57.204Z,18.40
2018-07-28T22:19:27.305Z,18.40
2018-07-28T22:21:57.369Z,18.40
2018-07-28T22:24:27.476Z,18.30
2018-07-28T22:26:57.554Z,18.30
2018-07-28T22:29:27.655Z,18.30
2018-07-28T22:31:57.717Z,18.20
2018-07-28T22:34:27.841Z,18.10
2018-07-28T22:36:57.841Z,18.10
2018-07-28T22:39:27.941Z,18.00
2018-07-28T22:41:58.835Z,18.00
2018-07-28T22:44:28.946Z,17.90
2018-07-28T22:46:59.002Z,17.90
2018-07-28T22:49:29.084Z,17.80
2018-07-28T22:51:59.173Z,17.80
2018-07-28T22:54:29.279Z,17.70
2018-07-28T22:56:59.390Z,17.70
2018-07-28T23:01:59.138Z,17.60
2018-07-28T23:04:29.207Z,17.50
2018-07-28T23:06:59.355Z,17.50
2018-07-28T23:09:29.418Z,17.50
2018-07-28T23:11:59.480Z,17.40
2018-07-28T23:14:29.589Z,17.40
2018-07-28T23:16:59.627Z,17.30
2018-07-28T23:19:29.721Z,17.30
2018-07-28T23:21:59.855Z,17.30
2018-07-28T23:24:30.011Z,17.30
2018-07-28T23:27:00.027Z,17.20
2018-07-28T23:29:30.109Z,17.20
2018-07-28T23:32:00.154Z,17.20
2018-07-28T23:34:30.277Z,17.20
2018-07-28T23:37:00.497Z,17.10
2018-07-28T23:39:30.684Z,17.20
2018-07-28T23:42:00.827Z,17.10
2018-07-28T23:44:30.849Z,17.10
2018-07-28T23:47:01.023Z,17.10
2018-07-28T23:49:31.083Z,17.10
2018-07-28T23:52:01.870Z,17.10
2018-07-28T23:54:31.966Z,17.10
2018-07-28T23:57:02.099Z,17.10
2018-07-28T23:59:32.191Z,17.10
